Hovedside
METAR-TAF:

METAR-TAF

Lufthavner :

Dusjanbe, Tadsjikistan

breddegrad: 38-33N, lengdegrad: 068-47E, høyde over havet: 803 m

Gjeldene værobservasjon

Denne rapporten ble laget for 34 minutter siden, klokken 18:00 UTC
Vind 2 kt fra skiftende retning
Temperatur 17°C
Luftfuktighet 72%
Trykk 1020 hPa
Sikt: 5000 m
Spredte skyer i en høyde av 2600 ft, Bygeskyer.
Brutte skyer i en høyde av 9400 ft
dis

METAR: UTDD 241800Z VRB01MPS 5000 BR SCT026CB BKN094 17/12 Q1020 R09/29//60 TEMPO 27007MPS RMK QFE696/0929

Tid: 23:34 (18:34 UTC)

Varsel

Denne rapporten ble laget for 2 timer og 20 minutter siden, klokken 16:14 UTC
Varsel gyldig fra 24. klokken 16 UTC til 25. klokken 04 UTC
Vind 4 kt fra skiftende retning
Sikt: 3100 m
Brutte skyer i en høyde av 4000 ft, Bygeskyer.
Overskyet i en høyde av 8000 ft
dis
Midlertidig
fra 24. klokken 16 UTC til 25. klokken 04 UTC
Vind 12 kt fra Vest-nordvest
torden, lett regn

TAF: UTDD 241614Z 2416/2504 VRB02MPS 3100 BR BKN040CB OVC080 TEMPO 2416/2504 29006MPS -TSRA

Værobservasjoner og værvarsel for over 4000 flyplasser (METAR- og TAF-rapporter).

Tilgjengelige stasjoner er representert av de røde og gule prikkene på kartet.

Hold musepekeren over prikken for å se navnet på stasjonen.

Klikk så for å se værobservasjoner og -varsler.

For å forandre kartet kan du klikke på den grønne knappen med svart kryss for å zoome inn, på den grønne knappen med strek for å zoome ut, eller på de grønne pilene for å se tilstøtende kart.


METAR-TAF: